Terminal Aerodrome Forecast
Issued by NWS

Home | Current Version | Previous Version | Text Only | Print | Product List | Glossary On
Versions: 1 2 3 4 5 6 7 8 9 10 11 12 13 14 15 16 17
000
FTUS44 KLZK 221003 AAA
TAFHOT
TAF AMD
KHOT 221003Z 2210/2306 26003KT P6SM SKC
      TEMPO 2211/2214 4SM BR
     FM221500 18007KT P6SM SCT015 BKN050
     FM221700 17007KT P6SM SCT050
     FM230000 VRB02KT P6SM SKC=

USA.gov is the U.S. government's official web portal to all federal, state and local government web resources and services.